createdAt,value
2018-11-11T00:01:53.140Z,97332.05
2018-11-11T00:22:33.425Z,97349.36
2018-11-11T00:43:12.897Z,97376.98
2018-11-11T01:03:51.957Z,97393.51
2018-11-11T01:24:32.665Z,97378.37
2018-11-11T01:45:17.862Z,97378.26
2018-11-11T02:05:56.921Z,97385.72
2018-11-11T02:26:33.117Z,97376.86
2018-11-11T02:47:11.358Z,97366.34
2018-11-11T03:07:49.615Z,97349.52
2018-11-11T03:28:28.250Z,97344.39
2018-11-11T03:49:06.496Z,97340.02
2018-11-11T04:09:43.508Z,97347.25
2018-11-11T04:30:27.077Z,97368.41
2018-11-11T04:51:07.365Z,97362.90
2018-11-11T05:11:45.602Z,97399.43
2018-11-11T05:32:25.898Z,97408.20
2018-11-11T05:53:08.244Z,97437.92
2018-11-11T06:13:48.129Z,97433.69
2018-11-11T06:34:27.593Z,97456.44
2018-11-11T06:55:07.873Z,97471.75
2018-11-11T07:33:48.710Z,97548.95
2018-11-11T07:54:24.904Z,97578.23
2018-11-11T08:15:06.422Z,97604.70
2018-11-11T08:35:46.894Z,97615.91
2018-11-11T08:56:24.956Z,97621.31
2018-11-11T09:17:03.387Z,97616.81
2018-11-11T09:37:42.259Z,97636.11
2018-11-11T09:58:20.503Z,97632.39
2018-11-11T10:19:08.266Z,97632.90
2018-11-11T11:01:31.442Z,97638.41
2018-11-11T11:22:11.310Z,97637.19
2018-11-11T11:42:53.111Z,97677.95
2018-11-11T12:03:31.877Z,97693.14
2018-11-11T12:24:12.572Z,97689.58
2018-11-11T12:44:54.597Z,97686.11
2018-11-11T13:05:32.121Z,97655.78
2018-11-11T13:26:12.398Z,97668.13
2018-11-11T13:46:49.669Z,97647.27
2018-11-11T14:07:26.656Z,97622.28
2018-11-11T14:28:06.127Z,97637.45
2018-11-11T14:48:49.483Z,97632.86
2018-11-11T15:09:27.525Z,97648.42
2018-11-11T15:30:04.957Z,97688.30
2018-11-11T15:50:43.199Z,97686.60
2018-11-11T16:11:21.441Z,97726.53
2018-11-11T16:32:01.735Z,97736.55
2018-11-11T16:52:42.017Z,97710.87
2018-11-11T17:13:21.078Z,97717.22
2018-11-11T17:34:00.549Z,97742.18
2018-11-11T17:54:42.909Z,97722.13
2018-11-11T18:15:24.819Z,97757.52
2018-11-11T18:36:03.483Z,97775.32
2018-11-11T18:56:51.592Z,97775.19
2018-11-11T19:35:31.560Z,97804.70
2018-11-11T19:56:11.027Z,97808.14
2018-11-11T20:16:51.352Z,97865.22
2018-11-11T20:37:31.198Z,97900.27
2018-11-11T20:58:09.854Z,97931.70
2018-11-11T21:18:48.913Z,97954.55
2018-11-11T21:39:30.429Z,97972.54
2018-11-11T22:00:16.459Z,97976.75
2018-11-11T22:20:55.932Z,97987.79
2018-11-11T22:41:34.171Z,97988.71
2018-11-11T23:02:09.142Z,97994.83
2018-11-11T23:22:51.478Z,97992.31
2018-11-11T23:43:29.719Z,97987.29
